Time;durP1;ratioP1;P1;durP2;ratioP2;P2;SDS_P1;SDS_P2;PMS_P1;PMS_P2;Temp;Humidity;BMP_temperature;BMP_pressure;BME280_temperature;BME280_humidity;BME280_pressure;Samples;Min_cycle;Max_cycle;Signal;HPM_P1;HPM_P2
2023/11/21 00:00:35;;;;;;;33.47;16.58;;;7.80;99.90;;;;;;4990173;28;20049;-79
2023/11/21 00:03:02;;;;;;;30.23;15.50;;;7.80;99.90;;;;;;4990413;28;20515;-80
2023/11/21 00:05:28;;;;;;;35.25;17.02;;;7.80;99.90;;;;;;4991239;28;20049;-81
2023/11/21 00:07:54;;;;;;;33.85;15.65;;;7.90;99.90;;;;;;4973341;28;20247;-86
2023/11/21 00:10:21;;;;;;;37.67;17.35;;;7.80;99.90;;;;;;4988384;28;20025;-83
2023/11/21 00:12:48;;;;;;;34.00;17.10;;;7.80;99.90;;;;;;4993983;28;20143;-81
2023/11/21 00:15:15;;;;;;;36.88;16.92;;;7.80;99.90;;;;;;4994227;28;20041;-81
2023/11/21 00:17:42;;;;;;;32.75;16.70;;;7.80;99.90;;;;;;4995683;28;20033;-83
2023/11/21 00:20:12;;;;;;;29.95;15.65;;;7.80;99.90;;;;;;4990934;28;20041;-76
2023/11/21 00:22:39;;;;;;;30.90;16.20;;;7.70;99.90;;;;;;4996089;28;20041;-79
2023/11/21 00:25:08;;;;;;;35.50;16.50;;;7.70;99.90;;;;;;4963118;28;20053;-85
2023/11/21 00:27:38;;;;;;;33.92;17.48;;;7.70;99.90;;;;;;4974983;28;20042;-85
2023/11/21 00:30:05;;;;;;;31.95;17.02;;;7.70;99.90;;;;;;4991361;28;20029;-81
2023/11/21 00:32:32;;;;;;;33.70;17.15;;;7.70;99.90;;;;;;4967421;28;21396;-78
2023/11/21 00:34:59;;;;;;;34.70;16.88;;;7.70;99.90;;;;;;4992243;28;20041;-83
2023/11/21 00:37:25;;;;;;;35.47;17.67;;;7.60;99.90;;;;;;4974514;28;20397;-85
2023/11/21 00:39:52;;;;;;;36.75;17.75;;;7.60;99.90;;;;;;4992879;28;20139;-84
2023/11/21 00:42:18;;;;;;;36.70;17.05;;;7.70;99.90;;;;;;4953495;28;20029;-82
2023/11/21 00:44:45;;;;;;;33.30;17.80;;;7.70;99.90;;;;;;4974774;28;20029;-84
2023/11/21 00:47:12;;;;;;;35.40;17.17;;;7.70;99.90;;;;;;4973090;28;20038;-83
2023/11/21 00:49:40;;;;;;;34.55;17.48;;;7.70;99.90;;;;;;4977773;28;20038;-77
2023/11/21 00:52:07;;;;;;;35.20;17.38;;;7.80;99.90;;;;;;4967490;28;20050;-81
2023/11/21 00:54:33;;;;;;;37.75;17.25;;;7.80;99.90;;;;;;4977399;28;20045;-85
2023/11/21 00:56:59;;;;;;;36.05;16.48;;;7.80;99.90;;;;;;4995255;28;20733;-78
2023/11/21 00:59:26;;;;;;;36.67;18.30;;;7.80;99.90;;;;;;4992634;28;20038;-84
2023/11/21 01:01:54;;;;;;;35.47;18.15;;;7.90;99.90;;;;;;4989159;28;20034;-78
2023/11/21 01:04:20;;;;;;;34.83;18.42;;;7.90;99.90;;;;;;4989456;28;20033;-82
2023/11/21 01:06:46;;;;;;;37.67;18.52;;;8.00;99.90;;;;;;4972810;28;20066;-85
2023/11/21 01:09:13;;;;;;;41.00;19.48;;;8.00;99.90;;;;;;4991837;28;20033;-87
2023/11/21 01:11:39;;;;;;;35.45;17.63;;;8.00;99.90;;;;;;4974742;28;20037;-81
2023/11/21 01:14:06;;;;;;;34.20;17.83;;;8.10;99.90;;;;;;4976203;28;20726;-81
2023/11/21 01:16:33;;;;;;;40.28;18.85;;;8.10;99.90;;;;;;4974890;28;20093;-80
2023/11/21 01:18:59;;;;;;;36.88;18.83;;;8.10;99.90;;;;;;4969186;28;20038;-86
2023/11/21 01:21:27;;;;;;;38.53;19.23;;;8.10;99.90;;;;;;4990706;28;20037;-78
2023/11/21 01:23:55;;;;;;;36.78;18.98;;;8.20;99.90;;;;;;4985371;28;20042;-82
2023/11/21 01:26:21;;;;;;;40.63;18.40;;;8.20;99.90;;;;;;4988617;28;20400;-76
2023/11/21 01:28:48;;;;;;;35.67;17.33;;;8.20;99.90;;;;;;4985200;28;20033;-84
2023/11/21 01:31:15;;;;;;;38.33;18.30;;;8.20;99.90;;;;;;4983260;28;20500;-78
2023/11/21 01:33:42;;;;;;;32.17;16.17;;;8.20;99.90;;;;;;4976278;28;20046;-80
2023/11/21 01:36:08;;;;;;;31.58;16.20;;;8.20;99.90;;;;;;4950707;28;20049;-76
2023/11/21 01:38:35;;;;;;;38.05;16.70;;;8.20;99.90;;;;;;4993275;28;20586;-86
2023/11/21 01:41:01;;;;;;;33.83;17.38;;;8.30;99.90;;;;;;4973536;28;20034;-80
2023/11/21 01:43:30;;;;;;;36.35;17.23;;;8.30;99.90;;;;;;4959451;28;20038;-85
2023/11/21 01:45:57;;;;;;;34.83;17.45;;;8.30;99.90;;;;;;4967373;28;20049;-80
2023/11/21 01:48:24;;;;;;;35.05;16.52;;;8.30;99.90;;;;;;4991195;28;20041;-84
2023/11/21 01:50:51;;;;;;;42.40;19.02;;;8.30;99.90;;;;;;5005558;28;20042;-82
2023/11/21 01:53:18;;;;;;;42.78;17.63;;;8.30;99.90;;;;;;4992580;28;20026;-82
2023/11/21 01:55:46;;;;;;;36.95;17.35;;;8.40;99.90;;;;;;4990084;28;20022;-76
2023/11/21 01:58:12;;;;;;;34.97;16.92;;;8.30;99.90;;;;;;5000139;28;20026;-77
2023/11/21 02:00:39;;;;;;;36.47;17.77;;;8.40;99.90;;;;;;4964115;28;20064;-84
2023/11/21 02:03:06;;;;;;;37.15;18.48;;;8.40;99.90;;;;;;4975086;28;20532;-82
2023/11/21 02:05:33;;;;;;;35.92;16.77;;;8.40;99.90;;;;;;4972602;28;20034;-83
2023/11/21 02:08:00;;;;;;;36.13;16.88;;;8.40;99.90;;;;;;4984209;28;20045;-81
2023/11/21 02:10:26;;;;;;;34.85;16.92;;;8.40;99.90;;;;;;4996188;28;20037;-87
2023/11/21 02:12:53;;;;;;;38.25;18.42;;;8.40;99.90;;;;;;4977823;28;20049;-86
2023/11/21 02:15:21;;;;;;;38.97;18.75;;;8.40;99.90;;;;;;4995953;28;20045;-79
2023/11/21 02:17:51;;;;;;;40.15;19.00;;;8.40;99.90;;;;;;4993532;28;20042;-84
2023/11/21 02:20:19;;;;;;;40.33;19.20;;;8.40;99.90;;;;;;4998033;28;20064;-79
2023/11/21 02:22:59;;;;;;;36.83;18.13;;;8.30;99.90;;;;;;5002342;28;20041;-82
2023/11/21 02:25:29;;;;;;;38.83;18.77;;;8.30;99.90;;;;;;4958268;28;20046;-82
2023/11/21 02:28:01;;;;;;;40.55;18.48;;;8.30;99.90;;;;;;4978381;28;20056;-86
2023/11/21 02:30:28;;;;;;;46.17;18.25;;;8.30;99.90;;;;;;4996033;28;20034;-75
2023/11/21 02:32:56;;;;;;;42.30;18.10;;;8.30;99.90;;;;;;4993836;28;20045;-83
2023/11/21 02:35:23;;;;;;;36.75;17.77;;;8.30;99.90;;;;;;4995634;28;20042;-83
2023/11/21 02:37:49;;;;;;;41.40;18.30;;;8.30;99.90;;;;;;4972023;28;20394;-81
2023/11/21 02:40:20;;;;;;;41.33;19.23;;;8.30;99.90;;;;;;4997460;28;20041;-81
2023/11/21 02:42:47;;;;;;;43.67;18.65;;;8.30;99.90;;;;;;4998307;28;20030;-84
2023/11/21 02:45:16;;;;;;;43.17;19.63;;;8.40;99.90;;;;;;4973061;28;20065;-85
2023/11/21 02:47:44;;;;;;;43.05;19.50;;;8.40;99.90;;;;;;4980180;28;20041;-84
2023/11/21 02:50:10;;;;;;;41.05;18.52;;;8.40;99.90;;;;;;4987063;28;20042;-77
2023/11/21 02:52:37;;;;;;;50.63;19.75;;;8.40;99.90;;;;;;4973460;28;20413;-79
2023/11/21 02:55:04;;;;;;;44.20;19.42;;;8.40;99.90;;;;;;4976543;28;20336;-76
2023/11/21 02:57:31;;;;;;;43.05;19.25;;;8.50;99.90;;;;;;4976567;28;20057;-82
2023/11/21 02:59:57;;;;;;;43.70;20.35;;;8.50;99.90;;;;;;4993667;28;20035;-83
2023/11/21 03:02:24;;;;;;;43.35;19.48;;;8.50;99.90;;;;;;4994046;28;20041;-83
2023/11/21 03:04:50;;;;;;;53.60;22.00;;;8.50;99.90;;;;;;4973556;28;20057;-80
2023/11/21 03:07:19;;;;;;;46.47;20.77;;;8.50;99.90;;;;;;4970384;28;20041;-81
2023/11/21 03:09:46;;;;;;;41.65;19.98;;;8.50;99.90;;;;;;4994865;28;20034;-84
2023/11/21 03:12:12;;;;;;;40.42;19.15;;;8.50;99.90;;;;;;4955605;28;20053;-80
2023/11/21 03:14:39;;;;;;;41.38;18.70;;;8.50;99.90;;;;;;4994454;28;20053;-82
2023/11/21 03:17:06;;;;;;;40.63;19.88;;;8.40;99.90;;;;;;4996118;28;20033;-87
2023/11/21 03:19:32;;;;;;;39.45;19.80;;;8.50;99.90;;;;;;4996922;28;20029;-76
2023/11/21 03:21:59;;;;;;;38.05;19.00;;;8.50;99.90;;;;;;4994784;28;20049;-84
2023/11/21 03:24:26;;;;;;;38.75;18.58;;;8.40;99.90;;;;;;4993786;28;20034;-83
2023/11/21 03:26:52;;;;;;;39.60;19.80;;;8.40;99.90;;;;;;4976876;28;20084;-79
2023/11/21 03:29:19;;;;;;;32.42;17.48;;;8.40;99.90;;;;;;4992547;28;20037;-81
2023/11/21 03:31:46;;;;;;;37.20;17.77;;;8.40;99.90;;;;;;4991268;28;20050;-84
2023/11/21 03:34:25;;;;;;;39.15;18.33;;;8.40;99.90;;;;;;4994857;28;20026;-85
2023/11/21 03:36:52;;;;;;;34.17;16.67;;;8.40;99.90;;;;;;4991231;28;20052;-83
2023/11/21 03:39:22;;;;;;;34.67;16.90;;;8.40;99.90;;;;;;4977744;28;20052;-81
2023/11/21 03:41:49;;;;;;;33.78;17.40;;;8.40;99.90;;;;;;4992769;28;20041;-78
2023/11/21 03:44:17;;;;;;;31.52;17.33;;;8.50;99.90;;;;;;4993976;28;20034;-78
2023/11/21 03:46:45;;;;;;;37.65;18.92;;;8.50;99.90;;;;;;4994037;28;21260;-77
2023/11/21 03:49:12;;;;;;;35.95;19.02;;;8.50;99.90;;;;;;4997259;28;20050;-77
2023/11/21 03:51:39;;;;;;;39.35;20.30;;;8.50;99.90;;;;;;5008467;28;20745;-81
2023/11/21 03:54:05;;;;;;;37.08;18.65;;;8.60;99.90;;;;;;4993993;28;20035;-77
2023/11/21 03:56:32;;;;;;;38.30;19.02;;;8.60;99.90;;;;;;4992841;28;20033;-75
2023/11/21 03:58:58;;;;;;;31.95;18.95;;;8.60;99.90;;;;;;4974502;28;20034;-82
2023/11/21 04:01:24;;;;;;;38.25;20.25;;;8.60;99.90;;;;;;4992004;28;20082;-79
2023/11/21 04:03:51;;;;;;;34.35;17.75;;;8.60;99.90;;;;;;4958178;28;20503;-85
2023/11/21 04:06:18;;;;;;;33.17;17.25;;;8.60;99.90;;;;;;4976259;28;20037;-84
2023/11/21 04:08:45;;;;;;;34.95;18.25;;;8.60;99.90;;;;;;4976007;28;20033;-80
2023/11/21 04:11:11;;;;;;;36.22;18.92;;;8.60;99.90;;;;;;4990559;28;20034;-82
2023/11/21 04:13:39;;;;;;;35.58;19.00;;;8.60;99.90;;;;;;4970814;28;20065;-85
2023/11/21 04:16:08;;;;;;;32.13;17.42;;;8.60;99.90;;;;;;4991873;28;20041;-74
2023/11/21 04:18:39;;;;;;;33.47;18.10;;;8.60;99.90;;;;;;4982876;28;20033;-81
2023/11/21 04:21:06;;;;;;;33.05;17.95;;;8.60;99.90;;;;;;4967439;28;20503;-76
2023/11/21 04:23:32;;;;;;;34.60;19.20;;;8.60;99.90;;;;;;4998358;28;20038;-84
2023/11/21 04:25:59;;;;;;;37.80;18.05;;;8.60;99.90;;;;;;4977061;28;20046;-81
2023/11/21 04:28:25;;;;;;;38.35;19.15;;;8.60;99.90;;;;;;4961439;28;20038;-84
2023/11/21 04:30:52;;;;;;;34.92;17.55;;;8.60;99.90;;;;;;4974740;28;20034;-83
2023/11/21 04:33:19;;;;;;;37.85;19.25;;;8.70;99.90;;;;;;4992150;28;20037;-83
2023/11/21 04:35:46;;;;;;;38.72;19.20;;;8.70;99.90;;;;;;4994239;28;20615;-79
2023/11/21 04:38:12;;;;;;;39.05;20.15;;;8.70;99.90;;;;;;4991472;28;20044;-77
2023/11/21 04:40:38;;;;;;;42.67;19.80;;;8.70;99.90;;;;;;4984431;28;20587;-80
2023/11/21 04:43:05;;;;;;;37.70;19.23;;;8.70;99.90;;;;;;4972990;28;20050;-83
2023/11/21 04:45:31;;;;;;;40.15;18.73;;;8.70;99.90;;;;;;4992180;28;20030;-79
2023/11/21 04:47:57;;;;;;;36.72;19.42;;;8.70;99.90;;;;;;4976313;28;20045;-83
2023/11/21 04:50:26;;;;;;;44.03;20.20;;;8.70;99.90;;;;;;4992733;28;20042;-83
2023/11/21 04:52:53;;;;;;;38.90;19.83;;;8.70;99.90;;;;;;4976284;28;20038;-80
2023/11/21 04:55:19;;;;;;;39.35;19.50;;;8.80;99.90;;;;;;4971374;28;20480;-80
2023/11/21 04:57:47;;;;;;;37.35;19.40;;;8.80;99.90;;;;;;4993878;28;20037;-84
2023/11/21 05:00:15;;;;;;;42.33;20.77;;;8.80;99.90;;;;;;4993028;28;20611;-79
2023/11/21 05:02:43;;;;;;;36.15;19.40;;;8.80;99.90;;;;;;4968951;28;20058;-81
2023/11/21 05:05:10;;;;;;;45.30;21.27;;;8.80;99.90;;;;;;4952814;28;20041;-75
2023/11/21 05:07:37;;;;;;;42.53;20.48;;;8.80;99.90;;;;;;4992104;28;20034;-82
2023/11/21 05:10:10;;;;;;;41.42;21.08;;;8.80;99.90;;;;;;4992162;28;20680;-79
2023/11/21 05:12:40;;;;;;;43.92;21.42;;;8.80;99.90;;;;;;4991707;28;20042;-81
2023/11/21 05:15:10;;;;;;;41.03;20.08;;;8.90;99.90;;;;;;4992526;28;20026;-80
2023/11/21 05:17:38;;;;;;;37.50;19.13;;;8.80;99.90;;;;;;4972737;28;20046;-82
2023/11/21 05:20:08;;;;;;;40.97;19.85;;;8.90;99.90;;;;;;4992969;28;20037;-80
2023/11/21 05:22:35;;;;;;;41.42;21.15;;;8.90;99.90;;;;;;4967195;28;20048;-81
2023/11/21 05:25:03;;;;;;;39.30;19.27;;;8.80;99.90;;;;;;4994132;28;20033;-75
2023/11/21 05:27:33;;;;;;;35.97;18.83;;;8.80;99.90;;;;;;4992213;28;20060;-78
2023/11/21 05:30:06;;;;;;;36.13;18.77;;;8.80;99.90;;;;;;5008876;28;20666;-80
2023/11/21 05:32:33;;;;;;;35.17;18.60;;;8.80;99.90;;;;;;4978829;28;20049;-79
2023/11/21 05:35:00;;;;;;;40.42;19.38;;;8.80;99.90;;;;;;4993042;28;20042;-76
2023/11/21 05:37:27;;;;;;;35.75;17.83;;;8.80;99.90;;;;;;4968673;28;20069;-83
2023/11/21 05:39:56;;;;;;;30.73;16.55;;;8.80;99.90;;;;;;4995012;28;20535;-80
2023/11/21 05:42:23;;;;;;;32.33;16.73;;;8.90;99.90;;;;;;4994759;28;20030;-80
2023/11/21 05:44:49;;;;;;;28.25;15.15;;;8.80;99.90;;;;;;4964770;28;20030;-82
2023/11/21 05:47:16;;;;;;;34.53;17.42;;;8.80;99.90;;;;;;4977401;28;20045;-80
2023/11/21 05:49:42;;;;;;;31.15;17.23;;;8.90;99.90;;;;;;4977101;28;20030;-86
2023/11/21 05:52:08;;;;;;;30.77;17.52;;;8.90;99.90;;;;;;4968025;28;20041;-77
2023/11/21 05:54:34;;;;;;;32.35;18.42;;;8.90;99.90;;;;;;4995294;28;20430;-81
2023/11/21 05:57:01;;;;;;;28.42;17.25;;;8.90;99.90;;;;;;4972599;28;20416;-83
2023/11/21 05:59:27;;;;;;;31.42;18.02;;;8.90;99.90;;;;;;4979643;28;20044;-83
2023/11/21 06:01:54;;;;;;;33.97;19.35;;;8.90;99.90;;;;;;4991013;28;20045;-81
2023/11/21 06:04:23;;;;;;;29.60;16.50;;;8.90;99.90;;;;;;4958044;28;20065;-74
2023/11/21 06:06:51;;;;;;;32.40;17.67;;;8.90;99.90;;;;;;4992806;28;20045;-83
2023/11/21 06:09:18;;;;;;;31.10;16.77;;;8.90;99.90;;;;;;5010826;28;20779;-88
2023/11/21 06:11:44;;;;;;;33.78;18.65;;;8.90;99.90;;;;;;4997987;28;20038;-81
2023/11/21 06:14:11;;;;;;;34.15;17.42;;;8.90;99.90;;;;;;4970000;28;20041;-79
2023/11/21 06:16:37;;;;;;;27.27;16.73;;;8.90;99.90;;;;;;4996530;28;20057;-85
2023/11/21 06:19:05;;;;;;;31.23;18.15;;;8.90;99.90;;;;;;4999149;28;20030;-83
2023/11/21 06:21:31;;;;;;;27.80;15.55;;;8.90;99.90;;;;;;4994387;28;20042;-81
2023/11/21 06:23:58;;;;;;;30.00;17.40;;;8.90;99.90;;;;;;4978247;28;20033;-82
2023/11/21 06:26:25;;;;;;;35.60;18.58;;;8.90;99.90;;;;;;4974342;28;20038;-75
2023/11/21 06:28:52;;;;;;;32.88;17.88;;;8.90;99.90;;;;;;4977512;28;20038;-76
2023/11/21 06:31:19;;;;;;;34.63;17.27;;;9.00;99.90;;;;;;4977045;28;20053;-81
2023/11/21 06:33:46;;;;;;;33.50;18.42;;;9.00;99.90;;;;;;4971590;28;20033;-80
2023/11/21 06:36:12;;;;;;;36.97;19.02;;;9.00;99.90;;;;;;4994871;28;20391;-82
2023/11/21 06:38:38;;;;;;;35.75;17.90;;;9.00;99.90;;;;;;4995464;28;20034;-75
2023/11/21 06:41:05;;;;;;;33.88;17.98;;;9.00;99.90;;;;;;4994400;28;20033;-78
2023/11/21 06:43:32;;;;;;;34.05;17.60;;;9.00;99.90;;;;;;4974695;28;20061;-76
2023/11/21 06:45:58;;;;;;;40.65;22.13;;;9.00;99.90;;;;;;4995922;28;20488;-80
2023/11/21 06:48:25;;;;;;;38.42;20.33;;;9.00;99.90;;;;;;4996887;28;20049;-84
2023/11/21 06:50:52;;;;;;;39.53;21.30;;;9.00;99.90;;;;;;4964542;28;20048;-87
2023/11/21 06:53:18;;;;;;;38.92;20.20;;;9.00;99.90;;;;;;4957544;28;20053;-79
2023/11/21 06:55:45;;;;;;;30.27;16.15;;;9.00;99.90;;;;;;4970675;28;22630;-79
2023/11/21 06:58:11;;;;;;;32.15;17.60;;;9.00;99.90;;;;;;4994369;28;20034;-80
2023/11/21 07:00:38;;;;;;;31.70;17.75;;;9.00;99.90;;;;;;4976742;28;20065;-80
2023/11/21 07:03:04;;;;;;;30.23;17.13;;;9.00;99.90;;;;;;4992443;28;20034;-81
2023/11/21 07:05:30;;;;;;;30.98;16.88;;;9.00;99.90;;;;;;4972910;28;20048;-75
2023/11/21 07:07:57;;;;;;;30.15;16.92;;;9.00;99.90;;;;;;4977398;28;20045;-82
2023/11/21 07:10:23;;;;;;;29.65;16.77;;;9.00;99.90;;;;;;4994988;28;20045;-82
2023/11/21 07:12:51;;;;;;;33.75;18.33;;;9.00;99.90;;;;;;4995481;28;20041;-78
2023/11/21 07:15:19;;;;;;;36.20;19.20;;;9.10;99.90;;;;;;4970485;28;20022;-76
2023/11/21 07:17:46;;;;;;;34.78;18.38;;;9.10;99.90;;;;;;5008698;28;20038;-76
2023/11/21 07:20:13;;;;;;;33.88;18.27;;;9.10;99.90;;;;;;4994818;28;20376;-83
2023/11/21 07:22:40;;;;;;;41.58;19.88;;;9.10;99.90;;;;;;4996122;28;20037;-83
2023/11/21 07:25:07;;;;;;;38.20;20.25;;;9.10;99.90;;;;;;4993733;28;20045;-81
2023/11/21 07:27:35;;;;;;;39.38;20.00;;;9.10;99.90;;;;;;4994196;28;20026;-77
2023/11/21 07:30:07;;;;;;;42.17;20.33;;;9.10;99.90;;;;;;4968192;28;20068;-80
2023/11/21 07:32:34;;;;;;;39.70;18.75;;;9.10;99.90;;;;;;4994202;28;20049;-79
2023/11/21 07:35:01;;;;;;;42.78;20.42;;;9.10;99.90;;;;;;4991242;28;20048;-78
2023/11/21 07:37:30;;;;;;;41.35;19.70;;;9.10;99.90;;;;;;4995421;28;20025;-76
2023/11/21 07:39:56;;;;;;;36.92;18.48;;;9.20;99.90;;;;;;4994486;28;20029;-82
2023/11/21 07:42:26;;;;;;;44.50;22.23;;;9.20;99.90;;;;;;4993827;28;20077;-82
2023/11/21 07:44:53;;;;;;;40.67;20.38;;;9.20;99.90;;;;;;4995361;28;20037;-84
2023/11/21 07:47:19;;;;;;;45.90;20.52;;;9.20;99.90;;;;;;4979660;28;20038;-85
2023/11/21 07:49:46;;;;;;;42.60;20.17;;;9.20;99.90;;;;;;4995014;28;20029;-76
2023/11/21 07:52:16;;;;;;;43.10;20.23;;;9.20;99.90;;;;;;4966985;28;20049;-82
2023/11/21 07:54:42;;;;;;;43.90;20.75;;;9.30;99.90;;;;;;4993560;28;20037;-78
2023/11/21 07:57:08;;;;;;;44.75;21.25;;;9.30;99.90;;;;;;4993804;28;20038;-82
2023/11/21 07:59:35;;;;;;;48.97;24.83;;;9.40;99.90;;;;;;4994310;28;20045;-81
2023/11/21 08:02:01;;;;;;;47.15;22.85;;;9.40;99.90;;;;;;4973820;28;20708;-84
2023/11/21 08:04:27;;;;;;;46.72;21.90;;;9.40;99.90;;;;;;4995262;28;20030;-78
2023/11/21 08:06:54;;;;;;;46.40;20.40;;;9.40;99.90;;;;;;4987296;28;20053;-77
2023/11/21 08:09:23;;;;;;;43.40;22.38;;;9.40;99.90;;;;;;4995899;28;20132;-81
2023/11/21 08:11:51;;;;;;;50.70;23.73;;;9.40;99.90;;;;;;4993988;28;20038;-74
2023/11/21 08:14:18;;;;;;;82.03;36.10;;;9.50;99.90;;;;;;4995011;28;20034;-77
2023/11/21 08:16:44;;;;;;;64.68;30.58;;;9.40;99.90;;;;;;4986146;28;20037;-80
2023/11/21 08:19:11;;;;;;;84.85;37.05;;;9.40;99.90;;;;;;4997084;28;20049;-74
2023/11/21 08:21:38;;;;;;;63.00;31.00;;;9.40;99.90;;;;;;4975411;28;20050;-80
2023/11/21 08:24:06;;;;;;;55.28;24.92;;;9.40;99.90;;;;;;4993057;28;20034;-82
2023/11/21 08:26:33;;;;;;;49.47;23.73;;;9.40;99.90;;;;;;4990798;28;20041;-78
2023/11/21 08:28:59;;;;;;;48.78;23.70;;;9.40;99.90;;;;;;4993176;28;21454;-81
2023/11/21 08:31:25;;;;;;;49.60;22.58;;;9.40;99.90;;;;;;4976290;28;20034;-82
2023/11/21 08:33:55;;;;;;;49.33;24.30;;;9.50;99.90;;;;;;4992447;28;20034;-85
2023/11/21 08:36:25;;;;;;;57.45;24.17;;;9.50;99.90;;;;;;4977454;28;20037;-78
2023/11/21 08:38:52;;;;;;;52.95;23.67;;;9.60;99.90;;;;;;4967173;28;20033;-82
2023/11/21 08:41:21;;;;;;;58.33;24.90;;;9.60;99.90;;;;;;4995834;28;20046;-83
2023/11/21 08:43:50;;;;;;;54.95;24.40;;;9.60;99.90;;;;;;4994980;28;20473;-81
2023/11/21 08:46:17;;;;;;;52.08;24.13;;;9.60;99.90;;;;;;4970045;28;20519;-82
2023/11/21 08:48:44;;;;;;;51.30;22.55;;;9.70;99.90;;;;;;4995191;28;22517;-80
2023/11/21 08:51:11;;;;;;;53.38;23.17;;;9.70;99.90;;;;;;4993515;28;20033;-78
2023/11/21 08:53:38;;;;;;;54.53;25.35;;;9.70;99.90;;;;;;4982397;28;20033;-81
2023/11/21 08:56:05;;;;;;;58.90;25.20;;;9.70;99.90;;;;;;4991514;28;20052;-76
2023/11/21 08:58:32;;;;;;;56.40;25.48;;;9.80;99.90;;;;;;4990299;28;20049;-76
2023/11/21 09:00:58;;;;;;;63.53;30.15;;;9.80;99.90;;;;;;4987117;28;20060;-76
2023/11/21 09:03:25;;;;;;;70.22;32.97;;;9.90;99.90;;;;;;4991653;28;20034;-78
2023/11/21 09:05:51;;;;;;;73.75;34.15;;;10.00;99.90;;;;;;4969110;28;20029;-74
2023/11/21 09:08:17;;;;;;;77.47;35.83;;;10.00;99.90;;;;;;4992365;28;20134;-78
2023/11/21 09:10:47;;;;;;;79.25;35.38;;;10.10;99.90;;;;;;4976988;28;20042;-76
2023/11/21 09:13:13;;;;;;;62.50;29.02;;;10.10;99.90;;;;;;4992903;28;20516;-82
2023/11/21 09:15:40;;;;;;;62.63;28.52;;;10.10;99.90;;;;;;4994930;28;20030;-81
2023/11/21 09:18:06;;;;;;;62.63;28.08;;;10.10;99.90;;;;;;4959678;28;20049;-79
2023/11/21 09:20:33;;;;;;;67.90;27.92;;;10.10;99.90;;;;;;4999487;28;20036;-77
2023/11/21 09:22:59;;;;;;;63.17;27.17;;;10.10;99.90;;;;;;4971846;28;20061;-77
2023/11/21 09:25:25;;;;;;;58.20;23.70;;;10.10;99.90;;;;;;4979131;28;20801;-83
2023/11/21 09:27:52;;;;;;;61.15;25.75;;;10.10;99.90;;;;;;4978113;28;20520;-81
2023/11/21 09:30:18;;;;;;;59.20;25.80;;;10.10;99.90;;;;;;4995769;28;20049;-79
2023/11/21 09:32:45;;;;;;;60.50;26.50;;;10.10;99.90;;;;;;4995626;28;20032;-83
2023/11/21 09:35:13;;;;;;;61.95;25.80;;;10.10;99.90;;;;;;4996365;28;20037;-82
2023/11/21 09:37:40;;;;;;;57.90;24.92;;;10.10;99.90;;;;;;4957934;28;20859;-77
2023/11/21 09:40:12;;;;;;;67.40;29.40;;;10.10;99.90;;;;;;4980968;28;20030;-76
2023/11/21 09:42:43;;;;;;;62.50;28.67;;;10.10;99.90;;;;;;4991863;28;20076;-79
2023/11/21 09:45:24;;;;;;;68.47;27.30;;;10.20;99.90;;;;;;4977589;28;20026;-75
2023/11/21 09:47:53;;;;;;;65.20;26.50;;;10.20;99.90;;;;;;4970498;28;20037;-80
2023/11/21 09:50:21;;;;;;;62.15;26.40;;;10.30;99.90;;;;;;4981003;28;20060;-80
2023/11/21 09:52:54;;;;;;;73.40;29.45;;;10.30;99.90;;;;;;4962205;28;20508;-79
2023/11/21 09:55:21;;;;;;;84.13;31.42;;;10.40;99.90;;;;;;4995363;28;20046;-82
2023/11/21 09:57:49;;;;;;;80.57;30.80;;;10.40;99.90;;;;;;4991835;28;20041;-79
2023/11/21 10:00:17;;;;;;;74.43;29.08;;;10.50;99.90;;;;;;4993169;28;20038;-80
2023/11/21 10:02:44;;;;;;;69.05;27.55;;;10.50;99.90;;;;;;4980239;28;20041;-82
2023/11/21 10:05:11;;;;;;;65.35;24.02;;;10.60;99.90;;;;;;4977084;28;20038;-80
2023/11/21 10:07:41;;;;;;;64.68;26.30;;;10.70;99.90;;;;;;4994299;28;20156;-75
2023/11/21 10:10:08;;;;;;;74.32;30.45;;;10.90;99.90;;;;;;4979311;28;20044;-76
2023/11/21 10:12:35;;;;;;;63.03;24.55;;;11.00;99.90;;;;;;4997050;28;20041;-80
2023/11/21 10:15:06;;;;;;;69.78;29.23;;;11.20;99.90;;;;;;5006825;28;20057;-81
2023/11/21 10:17:42;;;;;;;61.63;26.50;;;11.30;99.90;;;;;;4980253;28;20759;-80
2023/11/21 10:20:11;;;;;;;54.28;21.83;;;11.30;99.90;;;;;;4960756;28;20041;-76
2023/11/21 10:22:42;;;;;;;55.55;22.38;;;11.30;99.90;;;;;;4998158;28;20565;-79
2023/11/21 10:25:10;;;;;;;58.30;24.55;;;11.30;99.90;;;;;;4955627;28;20488;-80
2023/11/21 10:27:39;;;;;;;50.75;22.60;;;11.20;99.90;;;;;;4990789;28;20030;-78
2023/11/21 10:30:11;;;;;;;49.03;21.00;;;11.20;99.90;;;;;;4991804;28;20042;-76
2023/11/21 10:32:40;;;;;;;54.42;21.00;;;11.20;99.90;;;;;;4992657;28;20412;-79
2023/11/21 10:35:10;;;;;;;47.42;20.75;;;11.20;99.90;;;;;;4970785;28;20609;-75
2023/11/21 10:37:40;;;;;;;43.42;18.25;;;11.20;99.90;;;;;;4985952;28;20040;-77
2023/11/21 10:40:13;;;;;;;39.58;16.85;;;11.20;99.90;;;;;;4975375;28;20049;-77
2023/11/21 10:42:40;;;;;;;45.08;18.80;;;11.30;99.90;;;;;;4993361;28;20061;-77
2023/11/21 10:45:14;;;;;;;42.78;20.60;;;11.30;99.90;;;;;;4994039;28;20030;-74
2023/11/21 10:47:42;;;;;;;42.72;19.38;;;11.30;99.90;;;;;;4989024;28;20042;-78
2023/11/21 10:50:11;;;;;;;42.00;19.33;;;11.40;99.90;;;;;;4987815;28;20493;-76
2023/11/21 10:52:40;;;;;;;42.03;20.15;;;11.30;99.90;;;;;;4974112;28;20046;-75
2023/11/21 10:55:23;;;;;;;38.15;18.30;;;11.40;99.90;;;;;;4961479;28;20041;-78
2023/11/21 10:57:53;;;;;;;35.13;16.38;;;11.30;99.90;;;;;;4993600;28;20722;-78
2023/11/21 11:00:20;;;;;;;43.70;19.23;;;11.30;99.90;;;;;;4974412;28;20049;-77
2023/11/21 11:02:55;;;;;;;44.53;20.23;;;11.30;99.90;;;;;;4972365;28;20053;-79
2023/11/21 11:05:23;;;;;;;46.03;18.40;;;11.20;99.90;;;;;;4993174;28;20047;-74
2023/11/21 11:07:54;;;;;;;45.00;19.98;;;11.20;99.90;;;;;;4958057;28;20033;-78
2023/11/21 11:10:26;;;;;;;45.58;20.13;;;11.10;99.90;;;;;;4992656;28;20040;-78
2023/11/21 11:12:57;;;;;;;47.73;21.03;;;11.10;99.90;;;;;;4991419;28;20486;-78
2023/11/21 11:15:25;;;;;;;51.75;22.00;;;11.00;99.90;;;;;;4992893;28;20748;-81
2023/11/21 11:17:52;;;;;;;58.03;24.02;;;11.00;99.90;;;;;;4990949;28;20037;-76
2023/11/21 11:20:20;;;;;;;46.38;20.35;;;10.90;99.90;;;;;;4991943;28;20045;-75
2023/11/21 11:23:13;;;;;;;55.17;23.15;;;10.90;99.90;;;;;;5007306;28;20029;-81
2023/11/21 11:25:50;;;;;;;47.28;21.17;;;10.80;99.90;;;;;;4992177;28;20445;-82
2023/11/21 11:28:23;;;;;;;49.50;22.05;;;10.80;99.90;;;;;;4989655;28;20030;-79
2023/11/21 11:30:55;;;;;;;;;;;10.90;99.90;;;;;;4990148;28;20525;-77
2023/11/21 11:33:41;;;;;;;42.40;19.48;;;10.90;99.90;;;;;;4992956;28;19913;-84
2023/11/21 11:36:23;;;;;;;45.95;20.13;;;10.90;99.90;;;;;;4991344;28;20049;-79
2023/11/21 11:38:50;;;;;;;45.85;22.23;;;10.90;99.90;;;;;;4978873;28;20029;-83
2023/11/21 11:41:27;;;;;;;41.95;18.60;;;10.90;99.90;;;;;;5007005;28;20033;-82
2023/11/21 11:43:54;;;;;;;40.20;17.75;;;10.90;99.90;;;;;;4992116;28;20041;-80
2023/11/21 11:46:39;;;;;;;44.47;22.00;;;10.90;99.90;;;;;;4993727;28;20039;-75
2023/11/21 11:49:07;;;;;;;36.80;17.25;;;10.90;99.90;;;;;;4993550;28;20037;-83
2023/11/21 11:51:35;;;;;;;30.67;16.13;;;10.80;99.90;;;;;;4992325;28;20041;-78
2023/11/21 11:54:02;;;;;;;39.00;19.15;;;10.80;99.90;;;;;;4992861;28;20600;-81
2023/11/21 11:56:35;;;;;;;36.42;18.42;;;10.80;99.90;;;;;;4992151;28;20045;-81
2023/11/21 11:59:03;;;;;;;40.60;20.65;;;10.70;99.90;;;;;;4990969;28;20058;-79
2023/11/21 12:01:33;;;;;;;36.03;18.55;;;10.80;99.90;;;;;;4972518;28;20038;-79
2023/11/21 12:04:17;;;;;;;33.03;13.10;;;10.80;99.90;;;;;;4989764;28;20042;-75
2023/11/21 12:06:44;;;;;;;29.23;15.52;;;10.80;99.90;;;;;;4984592;28;20042;-80
2023/11/21 12:09:18;;;;;;;29.27;14.02;;;10.90;99.90;;;;;;4990677;28;20030;-77
2023/11/21 12:11:46;;;;;;;36.67;18.50;;;10.90;99.90;;;;;;5006856;28;20042;-79
2023/11/21 12:14:14;;;;;;;34.50;16.75;;;10.90;99.90;;;;;;4975384;28;20037;-80
2023/11/21 12:16:42;;;;;;;33.58;18.63;;;10.90;99.90;;;;;;4970017;28;20557;-80
2023/11/21 12:19:12;;;;;;;30.80;15.60;;;10.80;99.90;;;;;;4977927;28;20150;-77
2023/11/21 12:21:42;;;;;;;33.97;16.83;;;10.80;99.90;;;;;;5010643;28;20049;-79
2023/11/21 12:24:08;;;;;;;44.35;20.33;;;10.80;99.90;;;;;;4994417;28;20425;-80
2023/11/21 12:26:36;;;;;;;47.75;22.85;;;10.80;99.90;;;;;;4992802;28;20041;-82
2023/11/21 12:29:04;;;;;;;40.80;20.92;;;10.80;99.90;;;;;;4991735;28;20026;-82
2023/11/21 12:31:30;;;;;;;53.20;27.17;;;10.70;99.90;;;;;;4989336;28;20045;-80
2023/11/21 12:33:57;;;;;;;46.50;24.23;;;10.70;99.90;;;;;;4989195;28;20038;-76
2023/11/21 12:36:25;;;;;;;36.38;18.33;;;10.70;99.90;;;;;;4989006;28;20029;-78